Time;durP1;ratioP1;P1;durP2;ratioP2;P2;SDS_P1;SDS_P2;PMS_P1;PMS_P2;Temp;Humidity;BMP_temperature;BMP_pressure;BME280_temperature;BME280_humidity;BME280_pressure;Samples;Min_cycle;Max_cycle;Signal;HPM_P1;HPM_P2
2021/12/06 00:00:40;;;;;;;52.77;26.10;;;-0.30;99.90;;;;;;5073011;28;20579;-80
2021/12/06 00:03:15;;;;;;;49.40;25.43;;;-0.30;99.90;;;;;;5072335;28;20196;-80
2021/12/06 00:05:43;;;;;;;49.90;24.63;;;-0.30;99.90;;;;;;5072708;28;20188;-80
2021/12/06 00:08:10;;;;;;;47.73;25.20;;;-0.20;99.90;;;;;;5072533;28;20596;-80
2021/12/06 00:10:42;;;;;;;48.33;25.53;;;-0.20;99.90;;;;;;5072665;28;20198;-80
2021/12/06 00:13:12;;;;;;;48.23;24.50;;;-0.20;99.90;;;;;;5072958;28;20215;-80
2021/12/06 00:15:39;;;;;;;43.00;23.37;;;-0.20;99.90;;;;;;5072195;28;20310;-80
2021/12/06 00:18:06;;;;;;;47.97;24.00;;;-0.10;99.90;;;;;;5072331;28;20587;-81
2021/12/06 00:20:33;;;;;;;49.20;24.17;;;-0.10;99.90;;;;;;5072030;28;20706;-80
2021/12/06 00:23:01;;;;;;;47.70;24.80;;;-0.10;99.90;;;;;;5072846;28;20269;-80
2021/12/06 00:25:28;;;;;;;46.93;24.67;;;-0.10;99.90;;;;;;5073076;28;20246;-80
2021/12/06 00:27:55;;;;;;;43.90;23.37;;;-0.10;99.90;;;;;;5072214;28;20196;-80
2021/12/06 00:30:22;;;;;;;54.83;24.17;;;-0.10;99.90;;;;;;5072171;28;20191;-80
2021/12/06 00:32:49;;;;;;;48.63;24.43;;;-0.10;99.90;;;;;;5071812;28;20192;-80
2021/12/06 00:35:23;;;;;;;49.97;24.83;;;0.00;99.90;;;;;;5072110;28;20216;-80
2021/12/06 00:37:57;;;;;;;47.43;24.27;;;0.00;99.90;;;;;;5071936;28;20184;-81
2021/12/06 00:40:29;;;;;;;47.23;25.03;;;0.00;99.90;;;;;;5071916;28;20644;-81
2021/12/06 00:42:56;;;;;;;47.60;24.17;;;0.00;99.90;;;;;;5072174;28;20188;-80
2021/12/06 00:45:24;;;;;;;44.37;24.63;;;0.00;99.90;;;;;;5072036;28;20200;-80
2021/12/06 00:47:51;;;;;;;46.57;23.83;;;0.10;99.90;;;;;;5071894;28;20245;-81
2021/12/06 00:50:19;;;;;;;49.17;25.33;;;0.00;99.90;;;;;;5071709;28;20176;-81
2021/12/06 00:52:48;;;;;;;44.97;24.13;;;0.10;99.90;;;;;;5073448;28;20675;-80
2021/12/06 00:55:15;;;;;;;50.97;25.77;;;0.10;99.90;;;;;;5094422;28;20221;-81
2021/12/06 00:57:44;;;;;;;46.20;24.30;;;0.10;99.90;;;;;;5096227;28;20244;-80
2021/12/06 01:00:16;;;;;;;46.30;24.77;;;0.10;99.90;;;;;;5096182;28;20199;-80
2021/12/06 01:02:43;;;;;;;45.57;24.10;;;0.10;99.90;;;;;;5095915;28;20188;-81
2021/12/06 01:05:11;;;;;;;44.47;24.03;;;0.20;99.90;;;;;;5095681;28;20648;-81
2021/12/06 01:07:38;;;;;;;46.30;25.57;;;0.20;99.90;;;;;;5095599;28;20191;-80
2021/12/06 01:10:07;;;;;;;46.30;23.83;;;0.20;99.90;;;;;;5095673;28;20187;-80
2021/12/06 01:12:34;;;;;;;48.77;25.57;;;0.20;99.90;;;;;;5095304;28;20191;-81
2021/12/06 01:15:03;;;;;;;45.10;23.53;;;0.20;99.90;;;;;;5095478;28;20265;-80
2021/12/06 01:17:30;;;;;;;45.97;23.63;;;0.20;99.90;;;;;;5095548;28;20187;-80
2021/12/06 01:19:57;;;;;;;46.33;19.70;;;0.20;99.90;;;;;;5095514;28;20248;-80
2021/12/06 01:22:26;;;;;;;44.00;23.50;;;0.20;99.90;;;;;;5095475;28;20195;-80
2021/12/06 01:24:58;;;;;;;45.70;25.00;;;0.30;99.90;;;;;;5076007;28;20263;-81
2021/12/06 01:30:36;;;;;;;41.40;23.47;;;0.30;99.90;;;;;;5074728;28;20198;-80
2021/12/06 01:41:24;;;;;;;40.80;22.33;;;0.30;99.90;;;;;;5074704;28;20179;-81
2021/12/06 01:44:09;;;;;;;38.93;21.73;;;0.30;99.90;;;;;;5074729;28;20241;-80
2021/12/06 01:46:42;;;;;;;40.53;22.37;;;0.30;99.90;;;;;;5074469;28;20629;-80
2021/12/06 01:49:10;;;;;;;40.83;21.03;;;0.30;99.90;;;;;;5074846;28;20231;-80
2021/12/06 01:51:37;;;;;;;39.83;21.47;;;0.30;99.90;;;;;;5074255;28;20645;-80
2021/12/06 01:54:06;;;;;;;37.03;19.93;;;0.30;99.90;;;;;;5085729;28;20724;-80
2021/12/06 01:56:33;;;;;;;39.77;20.90;;;0.30;99.90;;;;;;5094685;28;20332;-80
2021/12/06 01:59:01;;;;;;;43.90;21.10;;;0.30;99.90;;;;;;5094740;28;20195;-80
2021/12/06 02:01:28;;;;;;;38.80;21.20;;;0.30;99.90;;;;;;5094458;28;20183;-81
2021/12/06 02:03:57;;;;;;;39.10;19.80;;;0.30;99.90;;;;;;5094370;28;20187;-81
2021/12/06 02:06:24;;;;;;;36.63;19.93;;;0.30;99.90;;;;;;5094515;28;20244;-80
2021/12/06 02:08:51;;;;;;;41.70;19.70;;;0.30;99.90;;;;;;5094589;28;20187;-80
2021/12/06 02:11:18;;;;;;;40.53;20.50;;;0.30;99.90;;;;;;5094480;28;20571;-80
2021/12/06 02:13:51;;;;;;;34.63;18.80;;;0.40;99.90;;;;;;5094382;28;20199;-81
2021/12/06 02:16:22;;;;;;;37.00;19.20;;;0.30;99.90;;;;;;5094035;28;20292;-81
2021/12/06 02:19:01;;;;;;;36.33;19.67;;;0.30;99.90;;;;;;5094600;28;20585;-80
2021/12/06 02:21:33;;;;;;;35.33;18.90;;;0.30;99.90;;;;;;5094409;28;20541;-80
2021/12/06 02:24:03;;;;;;;33.70;17.87;;;0.30;99.90;;;;;;5082715;28;20710;-80
2021/12/06 02:26:30;;;;;;;33.13;18.83;;;0.30;99.90;;;;;;5074030;28;20184;-80
2021/12/06 02:28:57;;;;;;;35.47;18.90;;;0.30;99.90;;;;;;5073550;28;20196;-81
2021/12/06 02:31:27;;;;;;;35.03;19.50;;;0.30;99.90;;;;;;5073473;28;20644;-80
2021/12/06 02:33:54;;;;;;;36.13;19.20;;;0.30;99.90;;;;;;5073819;28;20187;-81
2021/12/06 02:36:22;;;;;;;35.93;19.67;;;0.30;99.90;;;;;;5073669;28;20623;-80
2021/12/06 02:38:50;;;;;;;36.47;20.10;;;0.30;99.90;;;;;;5073685;28;20200;-80
2021/12/06 02:41:19;;;;;;;36.37;19.37;;;0.30;99.90;;;;;;5073572;28;20648;-80
2021/12/06 02:43:47;;;;;;;36.93;19.50;;;0.30;99.90;;;;;;5073870;28;20199;-81
2021/12/06 02:46:15;;;;;;;39.40;20.70;;;0.30;99.90;;;;;;5073495;28;20597;-80
2021/12/06 02:48:42;;;;;;;35.60;17.90;;;0.30;99.90;;;;;;5073324;28;20281;-81
2021/12/06 02:51:11;;;;;;;34.53;18.27;;;0.30;99.90;;;;;;5073080;28;20195;-81
2021/12/06 02:53:39;;;;;;;34.70;18.23;;;0.30;99.90;;;;;;5083066;28;20594;-81
2021/12/06 02:56:18;;;;;;;33.23;17.67;;;0.30;99.90;;;;;;5093610;28;20219;-80
2021/12/06 02:58:56;;;;;;;33.27;16.43;;;0.30;99.90;;;;;;5093962;28;20175;-80
2021/12/06 03:01:27;;;;;;;30.77;15.77;;;0.20;99.90;;;;;;5093360;28;20643;-81
2021/12/06 03:03:55;;;;;;;35.20;17.27;;;0.20;99.90;;;;;;5093190;28;20201;-81
2021/12/06 03:06:23;;;;;;;35.17;17.47;;;0.20;99.90;;;;;;5093566;28;20199;-81
2021/12/06 03:08:56;;;;;;;33.87;17.33;;;0.20;99.90;;;;;;5093702;28;20285;-81
2021/12/06 03:11:27;;;;;;;35.30;16.53;;;0.20;99.90;;;;;;5093468;28;20184;-81
2021/12/06 03:13:54;;;;;;;31.83;16.77;;;0.20;99.90;;;;;;5093018;28;20225;-81
2021/12/06 03:16:21;;;;;;;29.13;16.30;;;0.10;99.90;;;;;;5092466;28;20679;-80
2021/12/06 03:18:50;;;;;;;30.23;16.70;;;0.10;99.90;;;;;;5093142;28;20644;-80
2021/12/06 03:21:19;;;;;;;31.40;16.70;;;0.10;99.90;;;;;;5093075;28;20647;-81
2021/12/06 03:23:47;;;;;;;33.40;16.67;;;0.10;99.90;;;;;;5092047;28;20556;-80
2021/12/06 03:26:15;;;;;;;32.23;17.20;;;0.00;99.90;;;;;;5093059;28;20256;-81
2021/12/06 03:28:45;;;;;;;29.23;16.00;;;0.00;99.90;;;;;;5093078;28;20195;-81
2021/12/06 03:31:13;;;;;;;29.57;16.10;;;-0.10;99.90;;;;;;5092241;28;20925;-80
2021/12/06 03:33:43;;;;;;;28.40;15.50;;;-0.20;99.90;;;;;;5092931;28;20194;-81
2021/12/06 03:36:12;;;;;;;33.00;16.73;;;-0.30;99.90;;;;;;5092961;28;20199;-80
2021/12/06 03:38:43;;;;;;;30.40;16.63;;;-0.30;99.90;;;;;;5092628;28;20207;-80
2021/12/06 03:41:12;;;;;;;35.17;16.80;;;-0.30;99.90;;;;;;5092587;28;20187;-81
2021/12/06 03:43:41;;;;;;;33.93;17.27;;;-0.30;99.90;;;;;;5092534;28;20191;-81
2021/12/06 03:46:10;;;;;;;33.97;17.00;;;-0.30;99.90;;;;;;5092816;28;20195;-81
2021/12/06 03:48:37;;;;;;;33.67;16.83;;;-0.30;99.90;;;;;;5092385;28;20227;-80
2021/12/06 03:51:05;;;;;;;33.63;17.23;;;-0.30;99.90;;;;;;5092416;28;20602;-81
2021/12/06 03:53:32;;;;;;;33.80;18.27;;;-0.20;99.90;;;;;;5084603;28;20187;-81
2021/12/06 03:56:00;;;;;;;37.27;18.90;;;-0.20;99.90;;;;;;5072455;28;20215;-80
2021/12/06 03:58:28;;;;;;;38.00;18.83;;;-0.10;99.90;;;;;;5072573;28;20196;-81
2021/12/06 04:00:55;;;;;;;42.63;21.83;;;0.00;99.90;;;;;;5072176;28;20249;-80
2021/12/06 04:03:26;;;;;;;38.57;20.80;;;0.00;99.90;;;;;;5072690;28;20191;-81
2021/12/06 04:05:54;;;;;;;42.33;20.70;;;0.10;99.90;;;;;;5072487;28;20553;-80
2021/12/06 04:08:21;;;;;;;42.37;21.93;;;0.20;99.90;;;;;;5072651;28;20200;-81
2021/12/06 04:10:48;;;;;;;44.27;20.97;;;0.20;99.90;;;;;;5072407;28;20196;-80
2021/12/06 04:13:16;;;;;;;41.80;21.23;;;0.30;99.90;;;;;;5072351;28;20261;-81
2021/12/06 04:15:44;;;;;;;42.77;21.00;;;0.30;99.90;;;;;;5071957;28;20581;-81
2021/12/06 04:18:12;;;;;;;38.30;19.57;;;0.40;99.90;;;;;;5084276;28;20237;-80
2021/12/06 04:20:41;;;;;;;42.10;20.07;;;0.40;99.90;;;;;;5092185;28;20195;-81
2021/12/06 04:23:11;;;;;;;38.17;19.27;;;0.50;99.90;;;;;;5092460;28;20237;-81
2021/12/06 04:25:42;;;;;;;37.50;19.63;;;0.50;99.90;;;;;;5092297;28;20695;-81
2021/12/06 04:28:14;;;;;;;36.03;18.33;;;0.50;99.90;;;;;;5096486;28;20188;-80
2021/12/06 04:30:42;;;;;;;40.43;20.77;;;0.60;99.90;;;;;;5096537;28;20188;-82
2021/12/06 04:33:10;;;;;;;35.93;19.17;;;0.60;99.90;;;;;;5096117;28;20191;-82
2021/12/06 04:35:38;;;;;;;36.80;18.53;;;0.60;99.90;;;;;;5096027;28;20195;-80
2021/12/06 04:38:08;;;;;;;36.40;19.37;;;0.70;99.90;;;;;;5096271;28;20187;-81
2021/12/06 04:40:35;;;;;;;37.20;18.37;;;0.70;99.90;;;;;;5096453;28;20194;-81
2021/12/06 04:43:03;;;;;;;37.10;19.37;;;0.70;99.90;;;;;;5095887;28;20200;-81
2021/12/06 04:45:30;;;;;;;34.53;18.23;;;0.70;99.90;;;;;;5096284;28;20187;-80
2021/12/06 04:47:57;;;;;;;37.20;18.00;;;0.80;99.90;;;;;;5093413;28;20216;-81
2021/12/06 04:50:28;;;;;;;34.60;17.83;;;0.70;99.90;;;;;;5095814;28;20223;-81
2021/12/06 04:52:58;;;;;;;29.93;16.17;;;0.80;99.90;;;;;;5095976;28;20194;-80
2021/12/06 04:55:30;;;;;;;37.10;18.20;;;0.80;99.90;;;;;;5095976;28;20607;-81
2021/12/06 04:57:58;;;;;;;33.53;17.17;;;0.80;99.90;;;;;;5096236;28;20287;-81
2021/12/06 05:00:29;;;;;;;32.60;16.87;;;0.80;99.90;;;;;;5096298;28;20195;-81
2021/12/06 05:02:57;;;;;;;34.67;17.20;;;0.80;99.90;;;;;;5095722;28;20187;-81
2021/12/06 05:05:27;;;;;;;32.87;16.93;;;0.80;99.90;;;;;;5096220;28;20554;-81
2021/12/06 05:07:59;;;;;;;35.43;16.83;;;0.80;99.90;;;;;;5096232;28;20274;-80
2021/12/06 05:10:28;;;;;;;31.97;16.67;;;0.80;99.90;;;;;;5095613;28;20227;-81
2021/12/06 05:12:55;;;;;;;31.53;16.57;;;0.80;99.90;;;;;;5095864;28;20199;-81
2021/12/06 05:15:23;;;;;;;30.77;16.40;;;0.80;99.90;;;;;;5095614;28;20195;-80
2021/12/06 05:17:58;;;;;;;31.80;16.40;;;0.80;99.90;;;;;;5094838;28;20288;-80
2021/12/06 05:20:25;;;;;;;32.67;16.90;;;0.80;99.90;;;;;;5095505;28;20655;-81
2021/12/06 05:22:53;;;;;;;30.90;16.57;;;0.80;99.90;;;;;;5095108;28;20664;-80
2021/12/06 05:25:23;;;;;;;30.63;15.57;;;0.80;99.90;;;;;;5094852;28;20279;-80
2021/12/06 05:27:52;;;;;;;32.30;16.30;;;0.80;99.90;;;;;;5095324;28;20198;-80
2021/12/06 05:30:22;;;;;;;33.63;16.30;;;0.80;99.90;;;;;;5095299;28;20248;-80
2021/12/06 05:32:49;;;;;;;27.60;15.17;;;0.80;99.90;;;;;;5095239;28;20197;-80
2021/12/06 05:35:17;;;;;;;29.80;15.30;;;0.80;99.90;;;;;;5095267;28;20187;-80
2021/12/06 05:37:46;;;;;;;31.93;16.87;;;0.80;99.90;;;;;;5094161;28;20627;-80
2021/12/06 05:40:17;;;;;;;31.03;16.10;;;0.80;99.90;;;;;;5094825;28;20200;-80
2021/12/06 05:42:45;;;;;;;31.43;16.33;;;0.80;99.90;;;;;;5094552;28;20632;-80
2021/12/06 05:45:16;;;;;;;30.23;15.43;;;0.90;99.90;;;;;;5095009;28;20252;-81
2021/12/06 05:47:46;;;;;;;28.43;15.23;;;0.90;99.90;;;;;;5094346;28;20180;-80
2021/12/06 05:50:16;;;;;;;31.33;15.07;;;0.90;99.90;;;;;;5094336;28;20218;-80
2021/12/06 05:52:52;;;;;;;28.40;15.17;;;0.90;99.90;;;;;;5094278;28;20594;-81
2021/12/06 05:55:20;;;;;;;27.70;13.50;;;0.90;99.90;;;;;;5090203;28;20467;-80
2021/12/06 05:57:48;;;;;;;31.20;15.47;;;0.90;99.90;;;;;;5074144;28;20273;-81
2021/12/06 06:00:23;;;;;;;32.57;16.57;;;0.90;99.90;;;;;;5074139;28;20261;-80
2021/12/06 06:02:52;;;;;;;31.03;15.63;;;0.90;99.90;;;;;;5076055;28;20196;-80
2021/12/06 06:05:20;;;;;;;32.57;15.47;;;0.90;99.90;;;;;;5091496;28;20233;-81
2021/12/06 06:07:47;;;;;;;38.30;19.03;;;0.90;99.90;;;;;;5092211;28;20199;-82
2021/12/06 06:10:18;;;;;;;37.20;19.53;;;0.90;99.90;;;;;;5093974;28;20199;-82
2021/12/06 06:12:45;;;;;;;33.60;17.53;;;0.90;99.90;;;;;;5094304;28;20187;-80
2021/12/06 06:15:12;;;;;;;35.73;17.13;;;0.90;99.90;;;;;;5093662;28;20710;-81
2021/12/06 06:17:43;;;;;;;32.57;16.47;;;1.00;99.90;;;;;;5089593;28;20207;-81
2021/12/06 06:20:13;;;;;;;36.90;17.27;;;1.00;99.90;;;;;;5094503;28;20184;-80
2021/12/06 06:22:41;;;;;;;42.27;21.97;;;1.00;99.90;;;;;;5093959;28;20179;-81
2021/12/06 06:25:09;;;;;;;33.37;16.60;;;1.00;99.90;;;;;;5094250;28;20191;-81
2021/12/06 06:27:37;;;;;;;34.00;16.70;;;1.00;99.90;;;;;;5094194;28;20264;-80
2021/12/06 06:30:05;;;;;;;34.43;16.70;;;0.90;99.90;;;;;;5094326;28;20557;-80
2021/12/06 06:32:32;;;;;;;30.53;16.20;;;0.80;99.90;;;;;;5094263;28;20220;-80
2021/12/06 06:35:03;;;;;;;32.20;15.73;;;0.70;99.90;;;;;;5094151;28;20248;-81
2021/12/06 06:37:30;;;;;;;31.27;15.63;;;0.60;99.90;;;;;;5094306;28;20210;-81
2021/12/06 06:39:57;;;;;;;33.80;15.73;;;0.50;99.90;;;;;;5093899;28;20210;-80
2021/12/06 06:42:24;;;;;;;30.97;15.40;;;0.40;99.90;;;;;;5094057;28;20191;-80
2021/12/06 06:44:52;;;;;;;32.47;15.80;;;0.30;99.90;;;;;;5093910;28;20234;-80
2021/12/06 06:47:19;;;;;;;36.90;16.27;;;0.20;99.90;;;;;;5093008;28;20189;-80
2021/12/06 06:49:46;;;;;;;37.13;15.93;;;0.00;99.90;;;;;;5092470;28;20281;-80
2021/12/06 06:52:15;;;;;;;30.53;14.73;;;-0.10;99.90;;;;;;5093767;28;20195;-81
2021/12/06 06:54:50;;;;;;;27.60;14.17;;;-0.30;99.90;;;;;;5093760;28;20195;-81
2021/12/06 06:57:17;;;;;;;28.50;14.93;;;-0.40;99.90;;;;;;5093144;28;20248;-80
2021/12/06 06:59:45;;;;;;;29.03;14.47;;;-0.50;99.90;;;;;;5093264;28;20195;-80
2021/12/06 07:02:13;;;;;;;30.80;13.40;;;-0.70;99.90;;;;;;5093556;28;20264;-80
2021/12/06 07:04:40;;;;;;;29.60;13.67;;;-0.80;99.90;;;;;;5093509;28;20191;-80
2021/12/06 07:07:08;;;;;;;89.33;40.47;;;-0.90;99.90;;;;;;5093466;28;20248;-81
2021/12/06 07:09:38;;;;;;;25.47;12.43;;;-1.00;99.90;;;;;;5093429;28;20202;-81
2021/12/06 07:12:13;;;;;;;26.23;12.57;;;-1.10;99.90;;;;;;5093126;28;20191;-80
2021/12/06 07:14:40;;;;;;;21.53;11.30;;;-1.30;99.90;;;;;;5093486;28;20552;-80
2021/12/06 07:17:08;;;;;;;23.87;12.60;;;-1.30;99.90;;;;;;5086921;28;20212;-80
2021/12/06 07:19:35;;;;;;;21.40;11.00;;;-1.30;99.90;;;;;;5087083;28;20183;-80
2021/12/06 07:22:02;;;;;;;21.90;11.00;;;-1.20;99.90;;;;;;5092994;28;20241;-80
2021/12/06 07:24:29;;;;;;;22.67;11.77;;;-1.20;99.90;;;;;;5093072;28;20203;-80
2021/12/06 07:26:58;;;;;;;19.60;10.57;;;-1.10;99.90;;;;;;5093238;28;20644;-81
2021/12/06 07:29:25;;;;;;;21.17;10.30;;;-1.10;99.90;;;;;;5092722;28;20698;-80
2021/12/06 07:31:53;;;;;;;21.27;10.73;;;-1.10;99.90;;;;;;5092666;28;20191;-81
2021/12/06 07:34:21;;;;;;;22.03;10.23;;;-1.10;99.90;;;;;;5093136;28;20191;-80
2021/12/06 07:36:48;;;;;;;20.23;10.00;;;-1.20;99.90;;;;;;5093086;28;20244;-80
2021/12/06 07:39:15;;;;;;;20.00;10.07;;;-1.30;99.90;;;;;;5092878;28;20195;-80
2021/12/06 07:41:42;;;;;;;18.77;8.97;;;-1.30;99.90;;;;;;5092580;28;20187;-80
2021/12/06 07:44:11;;;;;;;19.20;9.87;;;-1.40;99.90;;;;;;5092963;28;20612;-80
2021/12/06 07:46:38;;;;;;;20.53;8.87;;;-1.50;99.90;;;;;;5092083;28;20187;-80
2021/12/06 07:49:05;;;;;;;18.57;9.23;;;-1.50;99.90;;;;;;5092725;28;20295;-80
2021/12/06 07:51:32;;;;;;;16.60;8.97;;;-1.60;99.90;;;;;;5092767;28;20195;-80
2021/12/06 07:54:01;;;;;;;17.63;8.90;;;-1.60;99.90;;;;;;5092665;28;20203;-80
2021/12/06 07:56:28;;;;;;;17.43;9.40;;;-1.60;99.90;;;;;;5092770;28;20193;-80
2021/12/06 07:58:56;;;;;;;16.97;9.77;;;-1.70;99.90;;;;;;5092889;28;20316;-80
2021/12/06 08:01:24;;;;;;;18.83;9.13;;;-1.60;99.90;;;;;;5092147;28;20195;-80
2021/12/06 08:03:51;;;;;;;15.30;8.63;;;-1.60;99.90;;;;;;5092606;28;20191;-80
2021/12/06 08:06:18;;;;;;;17.47;9.23;;;-1.60;99.90;;;;;;5092812;28;20187;-80
2021/12/06 08:08:48;;;;;;;18.23;9.57;;;-1.50;99.90;;;;;;5092670;28;20602;-80
2021/12/06 08:11:19;;;;;;;20.03;10.00;;;-1.40;99.90;;;;;;5092737;28;20187;-80
2021/12/06 08:13:53;;;;;;;19.00;9.40;;;-1.30;99.90;;;;;;5092022;28;20697;-81
2021/12/06 08:16:23;;;;;;;18.70;9.83;;;-1.10;99.90;;;;;;5092287;28;20654;-80
2021/12/06 08:18:53;;;;;;;19.73;9.87;;;-0.80;99.90;;;;;;5072576;28;20215;-81
2021/12/06 08:21:22;;;;;;;21.90;10.47;;;-0.40;99.90;;;;;;5071865;28;20196;-80
2021/12/06 08:23:52;;;;;;;20.53;10.83;;;0.00;99.90;;;;;;5072143;28;20191;-81
2021/12/06 08:26:21;;;;;;;21.57;10.07;;;0.30;99.90;;;;;;5072068;28;20312;-81
2021/12/06 08:28:49;;;;;;;17.43;9.43;;;0.60;99.90;;;;;;5072131;28;20200;-82
2021/12/06 08:31:18;;;;;;;15.80;9.50;;;0.90;99.90;;;;;;5072086;28;20196;-82
2021/12/06 08:33:46;;;;;;;13.97;7.93;;;1.20;99.90;;;;;;5071765;28;20346;-82
2021/12/06 08:36:15;;;;;;;14.27;7.83;;;1.50;99.90;;;;;;5072134;28;20197;-83
2021/12/06 08:38:47;;;;;;;11.50;7.03;;;1.80;99.90;;;;;;5085455;28;20756;-81
2021/12/06 08:41:17;;;;;;;13.40;7.53;;;2.00;99.90;;;;;;5091910;28;20233;-81
2021/12/06 08:43:45;;;;;;;16.20;9.63;;;2.10;99.90;;;;;;5091635;28;20621;-81
2021/12/06 08:46:17;;;;;;;19.50;12.60;;;2.10;99.90;;;;;;5091217;28;20189;-82
2021/12/06 08:48:45;;;;;;;28.50;14.67;;;2.10;99.90;;;;;;5090565;28;20217;-81
2021/12/06 08:51:19;;;;;;;19.03;10.17;;;2.10;99.90;;;;;;5091418;28;20188;-80
2021/12/06 08:53:47;;;;;;;15.50;9.17;;;2.10;99.90;;;;;;5092032;28;20228;-80
2021/12/06 08:56:15;;;;;;;18.70;10.53;;;2.20;99.90;;;;;;5092066;28;20252;-80
2021/12/06 08:58:42;;;;;;;36.53;19.33;;;2.20;99.90;;;;;;5091304;28;20767;-80
2021/12/06 09:01:11;;;;;;;33.37;19.43;;;2.20;99.90;;;;;;5092013;28;20254;-80
2021/12/06 09:03:38;;;;;;;33.30;20.47;;;2.30;99.90;;;;;;5091579;28;20225;-80
2021/12/06 09:06:09;;;;;;;34.13;16.77;;;2.20;99.90;;;;;;5091588;28;20202;-81
2021/12/06 09:08:39;;;;;;;23.17;14.53;;;2.30;99.90;;;;;;5087455;28;20714;-80
2021/12/06 09:11:07;;;;;;;19.93;12.67;;;2.30;99.90;;;;;;5088017;28;20214;-80
2021/12/06 09:13:34;;;;;;;16.70;10.70;;;2.20;99.90;;;;;;5090736;28;20273;-80
2021/12/06 09:16:04;;;;;;;18.00;9.70;;;2.20;99.90;;;;;;5094986;28;20656;-81
2021/12/06 09:18:34;;;;;;;18.13;9.87;;;2.20;99.90;;;;;;5093958;28;20212;-78
2021/12/06 09:21:03;;;;;;;16.60;9.83;;;2.20;99.90;;;;;;5095165;28;20281;-79
2021/12/06 09:23:31;;;;;;;14.70;8.60;;;2.10;99.90;;;;;;5094669;28;20179;-80
2021/12/06 09:25:59;;;;;;;16.53;9.40;;;2.20;99.90;;;;;;5090357;28;20245;-79
2021/12/06 09:28:28;;;;;;;16.03;9.07;;;2.10;99.90;;;;;;5094517;28;20205;-79
2021/12/06 09:30:55;;;;;;;15.10;8.37;;;2.20;99.90;;;;;;5094055;28;20183;-80
2021/12/06 09:33:24;;;;;;;15.73;8.50;;;2.20;99.90;;;;;;5095193;28;20191;-79
2021/12/06 09:35:54;;;;;;;13.10;8.10;;;2.10;99.90;;;;;;5094679;28;20253;-78
2021/12/06 09:38:27;;;;;;;13.57;8.27;;;2.10;99.90;;;;;;5094161;28;20286;-80
2021/12/06 09:40:56;;;;;;;14.57;8.23;;;2.10;99.90;;;;;;5094879;28;20540;-80
2021/12/06 09:43:25;;;;;;;13.47;7.93;;;2.10;99.90;;;;;;5094585;28;20188;-79
2021/12/06 09:45:54;;;;;;;13.03;7.63;;;2.10;99.90;;;;;;5094527;28;20583;-79
2021/12/06 09:48:21;;;;;;;14.17;7.73;;;2.10;99.90;;;;;;5093885;28;20247;-78
2021/12/06 09:50:52;;;;;;;12.70;8.37;;;2.10;99.90;;;;;;5095031;28;20241;-79
2021/12/06 09:53:23;;;;;;;16.77;8.10;;;2.10;99.90;;;;;;5094678;28;20181;-79
2021/12/06 09:55:52;;;;;;;14.07;7.70;;;2.10;99.90;;;;;;5094560;28;20180;-79
2021/12/06 09:58:20;;;;;;;12.03;7.57;;;2.10;99.90;;;;;;5094403;28;20687;-78
2021/12/06 10:00:53;;;;;;;12.77;7.27;;;2.20;99.90;;;;;;5094132;28;20229;-79
2021/12/06 10:03:24;;;;;;;13.93;7.80;;;2.10;99.90;;;;;;5094781;28;20237;-79
2021/12/06 10:05:51;;;;;;;13.73;7.70;;;2.20;99.90;;;;;;5091729;28;20184;-79
2021/12/06 10:08:19;;;;;;;12.60;7.50;;;2.20;99.90;;;;;;5094291;28;20194;-79
2021/12/06 10:10:46;;;;;;;13.03;7.17;;;2.20;99.90;;;;;;5094230;28;20248;-79
2021/12/06 10:13:13;;;;;;;14.07;7.63;;;2.20;99.90;;;;;;5094744;28;20195;-79
2021/12/06 10:15:43;;;;;;;14.83;9.10;;;2.20;99.90;;;;;;5094677;28;20210;-79
2021/12/06 10:18:16;;;;;;;16.70;9.63;;;2.20;99.90;;;;;;5093104;28;20240;-79
2021/12/06 10:20:44;;;;;;;14.93;9.53;;;2.30;99.90;;;;;;5091068;28;20176;-79
2021/12/06 10:23:11;;;;;;;14.50;8.40;;;2.30;99.90;;;;;;5090632;28;20267;-79
2021/12/06 10:25:40;;;;;;;14.40;7.80;;;2.30;99.90;;;;;;5093266;28;20281;-78
2021/12/06 10:28:08;;;;;;;11.30;7.10;;;2.30;99.90;;;;;;5089730;28;20253;-79
2021/12/06 10:30:38;;;;;;;13.30;6.83;;;2.30;99.90;;;;;;5092461;28;20533;-80
2021/12/06 10:33:09;;;;;;;13.60;7.30;;;2.40;99.90;;;;;;5092749;28;20180;-80
2021/12/06 10:35:45;;;;;;;14.97;8.47;;;2.40;99.90;;;;;;5092583;28;20629;-79
2021/12/06 10:38:18;;;;;;;12.30;7.27;;;2.40;99.90;;;;;;5090908;28;20240;-79
2021/12/06 10:40:46;;;;;;;13.17;6.83;;;2.40;99.90;;;;;;5089935;28;20547;-79
2021/12/06 10:43:13;;;;;;;11.03;6.73;;;2.40;99.90;;;;;;5092059;28;20230;-79
2021/12/06 10:45:44;;;;;;;9.90;6.00;;;2.40;99.90;;;;;;5092089;28;20184;-79
2021/12/06 10:48:18;;;;;;;11.43;6.70;;;2.40;99.90;;;;;;5092207;28;20194;-79
2021/12/06 10:50:56;;;;;;;10.50;6.57;;;2.40;99.90;;;;;;5090876;28;20181;-79
2021/12/06 10:53:26;;;;;;;10.80;6.63;;;2.40;99.90;;;;;;5093476;28;20266;-79
2021/12/06 10:55:56;;;;;;;9.97;6.40;;;2.40;99.90;;;;;;5093928;28;20603;-79
2021/12/06 10:58:27;;;;;;;11.63;6.27;;;2.40;99.90;;;;;;5093634;28;20241;-79
2021/12/06 11:00:56;;;;;;;10.33;6.27;;;2.40;99.90;;;;;;5093145;28;20183;-79
2021/12/06 11:03:30;;;;;;;10.33;6.27;;;2.40;99.90;;;;;;5089038;28;20187;-79
2021/12/06 11:06:02;;;;;;;11.70;6.40;;;2.50;99.90;;;;;;5091756;28;20187;-79
2021/12/06 11:08:31;;;;;;;13.40;6.73;;;2.50;99.90;;;;;;5093518;28;20530;-79
2021/12/06 11:11:00;;;;;;;10.83;6.07;;;2.50;99.90;;;;;;5092902;28;20241;-79
2021/12/06 11:13:29;;;;;;;10.07;6.10;;;2.50;99.90;;;;;;5092727;28;20248;-80
2021/12/06 11:16:04;;;;;;;10.67;6.27;;;2.50;99.90;;;;;;5092856;28;20191;-79
2021/12/06 11:18:40;;;;;;;11.07;6.20;;;2.60;99.90;;;;;;5092313;28;20257;-79
2021/12/06 11:21:20;;;;;;;10.77;6.47;;;2.50;99.90;;;;;;5091935;28;20186;-79
2021/12/06 11:24:21;;;;;;;11.93;6.30;;;2.50;99.90;;;;;;5092822;28;20180;-80
2021/12/06 11:26:58;;;;;;;9.87;6.47;;;2.50;99.90;;;;;;5092260;28;20175;-79
2021/12/06 11:29:29;;;;;;;9.37;6.03;;;2.50;99.90;;;;;;5092742;28;20260;-79
2021/12/06 11:31:59;;;;;;;13.27;6.60;;;2.50;99.90;;;;;;5098675;28;20196;-79
2021/12/06 11:34:30;;;;;;;9.87;6.20;;;2.50;99.90;;;;;;5099949;28;20207;-79
2021/12/06 11:36:59;;;;;;;9.33;6.13;;;2.50;99.90;;;;;;5098005;28;20594;-79
2021/12/06 11:39:27;;;;;;;10.47;5.90;;;2.50;99.90;;;;;;5097399;28;20220;-77
2021/12/06 11:41:58;;;;;;;9.67;6.03;;;2.40;99.90;;;;;;5096703;28;20196;-78
2021/12/06 11:44:29;;;;;;;9.63;6.10;;;2.40;99.90;;;;;;5094931;28;20183;-78
2021/12/06 11:47:02;;;;;;;12.50;6.47;;;2.40;99.90;;;;;;5093545;28;20181;-78
2021/12/06 11:49:33;;;;;;;11.40;6.53;;;2.40;99.90;;;;;;5090489;28;20688;-78
2021/12/06 11:52:03;;;;;;;10.97;6.27;;;2.40;99.90;;;;;;5091942;28;20187;-78
2021/12/06 11:54:37;;;;;;;9.47;5.40;;;2.40;99.90;;;;;;5091848;28;20188;-79
2021/12/06 11:57:15;;;;;;;8.37;5.17;;;2.40;99.90;;;;;;5092814;28;20189;-78
2021/12/06 11:59:47;;;;;;;9.33;5.50;;;2.30;99.90;;;;;;5072790;28;20205;-79
2021/12/06 12:02:14;;;;;;;8.03;5.20;;;2.30;99.90;;;;;;5072182;28;20198;-78
2021/12/06 12:04:42;;;;;;;9.03;5.10;;;2.40;99.90;;;;;;5072333;28;20246;-78
2021/12/06 12:07:10;;;;;;;9.40;5.50;;;2.30;99.90;;;;;;5081264;28;20540;-79
2021/12/06 12:09:39;;;;;;;6.97;4.60;;;2.40;99.90;;;;;;5092467;28;20200;-78
2021/12/06 12:12:09;;;;;;;10.97;5.20;;;2.40;99.90;;;;;;5089788;28;20190;-78
2021/12/06 12:14:41;;;;;;;8.43;4.90;;;2.40;99.90;;;;;;5092801;28;20191;-78
2021/12/06 12:17:13;;;;;;;8.20;4.77;;;2.40;99.90;;;;;;5092405;28;20221;-78
2021/12/06 12:19:42;;;;;;;7.13;4.83;;;2.40;99.90;;;;;;5092101;28;20298;-78
2021/12/06 12:22:14;;;;;;;13.13;8.37;;;2.40;99.90;;;;;;5092309;28;20245;-78
2021/12/06 12:24:45;;;;;;;8.40;4.53;;;2.40;99.90;;;;;;5092253;28;20632;-79
2021/12/06 12:27:23;;;;;;;7.60;4.70;;;2.40;99.90;;;;;;5092036;28;20632;-79
2021/12/06 12:29:53;;;;;;;6.67;4.80;;;2.40;99.90;;;;;;5091328;28;20191;-78
2021/12/06 12:32:22;;;;;;;7.67;4.77;;;2.40;99.90;;;;;;5091838;28;20183;-78
2021/12/06 12:34:51;;;;;;;7.73;4.90;;;2.40;99.90;;;;;;5091406;28;20195;-78
2021/12/06 12:37:21;;;;;;;8.00;4.80;;;2.50;99.90;;;;;;5091421;28;20192;-77
2021/12/06 12:39:59;;;;;;;7.67;4.47;;;2.50;99.90;;;;;;5091012;28;20211;-78
2021/12/06 12:42:26;;;;;;;8.70;4.67;;;2.50;99.90;;;;;;5091326;28;20183;-78
2021/12/06 12:44:57;;;;;;;8.83;4.93;;;2.50;99.90;;;;;;5091448;28;20180;-77
2021/12/06 12:47:27;;;;;;;6.83;4.70;;;2.50;99.90;;;;;;5091537;28;20270;-78
2021/12/06 12:49:58;;;;;;;8.10;5.07;;;2.50;99.90;;;;;;5095381;28;20625;-78
2021/12/06 12:52:41;;;;;;;7.63;5.00;;;2.40;99.90;;;;;;5095219;28;20187;-78
2021/12/06 12:55:23;;;;;;;6.83;4.63;;;2.40;99.90;;;;;;5094950;28;20585;-78
2021/12/06 12:57:51;;;;;;;7.07;4.27;;;2.40;99.90;;;;;;5095021;28;20190;-78
2021/12/06 13:00:24;;;;;;;6.63;4.13;;;2.40;99.90;;;;;;5093250;28;20579;-78
2021/12/06 13:02:51;;;;;;;5.93;4.30;;;2.30;99.90;;;;;;5095100;28;20674;-77